sensor_id;sensor_type;location;lat;lon;timestamp;P1;durP1;ratioP1;P2;durP2;ratioP2
33327;SDS011;19692;52.998;9.116;2022-07-09T00:00:38;12.53;;;5.90;;
33327;SDS011;19692;52.998;9.116;2022-07-09T00:03:04;9.80;;;5.90;;
33327;SDS011;19692;52.998;9.116;2022-07-09T00:05:30;8.60;;;5.93;;
33327;SDS011;19692;52.998;9.116;2022-07-09T00:07:56;10.53;;;5.07;;
33327;SDS011;19692;52.998;9.116;2022-07-09T00:10:21;11.33;;;5.73;;
33327;SDS011;19692;52.998;9.116;2022-07-09T00:12:47;11.33;;;5.73;;
33327;SDS011;19692;52.998;9.116;2022-07-09T00:15:13;14.17;;;6.03;;
33327;SDS011;19692;52.998;9.116;2022-07-09T00:17:39;10.17;;;6.57;;
33327;SDS011;19692;52.998;9.116;2022-07-09T00:20:05;15.87;;;7.40;;
33327;SDS011;19692;52.998;9.116;2022-07-09T00:22:32;13.17;;;7.90;;
33327;SDS011;19692;52.998;9.116;2022-07-09T00:24:58;15.77;;;8.40;;
33327;SDS011;19692;52.998;9.116;2022-07-09T00:27:25;10.80;;;7.40;;
33327;SDS011;19692;52.998;9.116;2022-07-09T00:29:51;12.53;;;8.00;;
33327;SDS011;19692;52.998;9.116;2022-07-09T00:32:18;13.23;;;8.03;;
33327;SDS011;19692;52.998;9.116;2022-07-09T00:34:44;13.27;;;7.43;;
33327;SDS011;19692;52.998;9.116;2022-07-09T00:37:10;12.50;;;7.90;;
33327;SDS011;19692;52.998;9.116;2022-07-09T00:39:36;13.13;;;7.83;;
33327;SDS011;19692;52.998;9.116;2022-07-09T00:42:06;11.23;;;7.87;;
33327;SDS011;19692;52.998;9.116;2022-07-09T00:44:34;13.47;;;8.43;;
33327;SDS011;19692;52.998;9.116;2022-07-09T00:47:00;13.73;;;8.43;;
33327;SDS011;19692;52.998;9.116;2022-07-09T00:49:28;16.07;;;8.60;;
33327;SDS011;19692;52.998;9.116;2022-07-09T00:51:55;13.97;;;8.57;;
33327;SDS011;19692;52.998;9.116;2022-07-09T00:54:22;15.03;;;8.43;;
33327;SDS011;19692;52.998;9.116;2022-07-09T00:56:49;13.77;;;8.50;;
33327;SDS011;19692;52.998;9.116;2022-07-09T00:59:19;14.53;;;9.17;;
33327;SDS011;19692;52.998;9.116;2022-07-09T01:01:46;14.73;;;8.90;;
33327;SDS011;19692;52.998;9.116;2022-07-09T01:04:13;12.27;;;8.40;;
33327;SDS011;19692;52.998;9.116;2022-07-09T01:06:39;17.37;;;9.30;;
33327;SDS011;19692;52.998;9.116;2022-07-09T01:09:05;11.87;;;8.73;;
33327;SDS011;19692;52.998;9.116;2022-07-09T01:11:32;11.43;;;9.57;;
33327;SDS011;19692;52.998;9.116;2022-07-09T01:13:58;13.87;;;8.67;;
33327;SDS011;19692;52.998;9.116;2022-07-09T01:16:30;13.80;;;9.53;;
33327;SDS011;19692;52.998;9.116;2022-07-09T01:18:57;11.80;;;8.80;;
33327;SDS011;19692;52.998;9.116;2022-07-09T01:21:22;15.67;;;9.33;;
33327;SDS011;19692;52.998;9.116;2022-07-09T01:23:48;20.83;;;9.97;;
33327;SDS011;19692;52.998;9.116;2022-07-09T01:26:15;14.90;;;10.23;;
33327;SDS011;19692;52.998;9.116;2022-07-09T01:28:41;15.57;;;9.87;;
33327;SDS011;19692;52.998;9.116;2022-07-09T01:31:07;16.57;;;9.97;;
33327;SDS011;19692;52.998;9.116;2022-07-09T01:33:33;14.13;;;10.33;;
33327;SDS011;19692;52.998;9.116;2022-07-09T01:35:58;16.57;;;10.40;;
33327;SDS011;19692;52.998;9.116;2022-07-09T01:38:24;18.70;;;10.60;;
33327;SDS011;19692;52.998;9.116;2022-07-09T01:40:50;14.20;;;10.67;;
33327;SDS011;19692;52.998;9.116;2022-07-09T01:43:16;16.13;;;10.80;;
33327;SDS011;19692;52.998;9.116;2022-07-09T01:45:42;13.40;;;10.87;;
33327;SDS011;19692;52.998;9.116;2022-07-09T01:48:07;17.03;;;10.93;;
33327;SDS011;19692;52.998;9.116;2022-07-09T01:50:33;16.77;;;11.13;;
33327;SDS011;19692;52.998;9.116;2022-07-09T01:52:59;15.10;;;11.07;;
33327;SDS011;19692;52.998;9.116;2022-07-09T01:55:25;17.17;;;11.07;;
33327;SDS011;19692;52.998;9.116;2022-07-09T01:57:51;17.03;;;11.67;;
33327;SDS011;19692;52.998;9.116;2022-07-09T02:00:17;18.60;;;11.80;;
33327;SDS011;19692;52.998;9.116;2022-07-09T02:02:44;19.40;;;11.17;;
33327;SDS011;19692;52.998;9.116;2022-07-09T02:05:10;20.33;;;11.20;;
33327;SDS011;19692;52.998;9.116;2022-07-09T02:07:36;15.23;;;11.63;;
33327;SDS011;19692;52.998;9.116;2022-07-09T02:10:02;17.47;;;10.63;;
33327;SDS011;19692;52.998;9.116;2022-07-09T02:12:29;17.17;;;10.83;;
33327;SDS011;19692;52.998;9.116;2022-07-09T02:14:55;19.53;;;11.90;;
33327;SDS011;19692;52.998;9.116;2022-07-09T02:17:21;15.27;;;10.63;;
33327;SDS011;19692;52.998;9.116;2022-07-09T02:19:47;17.40;;;10.57;;
33327;SDS011;19692;52.998;9.116;2022-07-09T02:22:12;16.77;;;11.33;;
33327;SDS011;19692;52.998;9.116;2022-07-09T02:24:38;16.60;;;10.27;;
33327;SDS011;19692;52.998;9.116;2022-07-09T02:27:04;14.07;;;10.23;;
33327;SDS011;19692;52.998;9.116;2022-07-09T02:29:30;15.50;;;10.47;;
33327;SDS011;19692;52.998;9.116;2022-07-09T02:31:56;13.30;;;10.80;;
33327;SDS011;19692;52.998;9.116;2022-07-09T02:34:22;14.00;;;10.57;;
33327;SDS011;19692;52.998;9.116;2022-07-09T02:36:49;17.03;;;12.00;;
33327;SDS011;19692;52.998;9.116;2022-07-09T02:39:16;15.90;;;10.60;;
33327;SDS011;19692;52.998;9.116;2022-07-09T02:41:42;15.37;;;10.63;;
33327;SDS011;19692;52.998;9.116;2022-07-09T02:44:08;14.23;;;9.93;;
33327;SDS011;19692;52.998;9.116;2022-07-09T02:46:34;15.63;;;10.77;;
33327;SDS011;19692;52.998;9.116;2022-07-09T02:48:59;14.57;;;10.70;;
33327;SDS011;19692;52.998;9.116;2022-07-09T02:51:25;16.37;;;10.77;;
33327;SDS011;19692;52.998;9.116;2022-07-09T02:53:51;17.20;;;11.10;;
33327;SDS011;19692;52.998;9.116;2022-07-09T02:56:17;16.43;;;11.07;;
33327;SDS011;19692;52.998;9.116;2022-07-09T02:58:42;12.90;;;10.73;;
33327;SDS011;19692;52.998;9.116;2022-07-09T03:01:08;16.73;;;10.87;;
33327;SDS011;19692;52.998;9.116;2022-07-09T03:03:34;16.47;;;10.43;;
33327;SDS011;19692;52.998;9.116;2022-07-09T03:06:01;14.37;;;10.30;;
33327;SDS011;19692;52.998;9.116;2022-07-09T03:08:32;14.97;;;11.00;;
33327;SDS011;19692;52.998;9.116;2022-07-09T03:10:58;19.43;;;10.37;;
33327;SDS011;19692;52.998;9.116;2022-07-09T03:13:24;19.07;;;11.07;;
33327;SDS011;19692;52.998;9.116;2022-07-09T03:15:50;13.57;;;9.60;;
33327;SDS011;19692;52.998;9.116;2022-07-09T03:18:16;15.57;;;10.43;;
33327;SDS011;19692;52.998;9.116;2022-07-09T03:20:42;13.77;;;10.13;;
33327;SDS011;19692;52.998;9.116;2022-07-09T03:23:07;14.10;;;9.97;;
33327;SDS011;19692;52.998;9.116;2022-07-09T03:25:33;14.70;;;10.03;;
33327;SDS011;19692;52.998;9.116;2022-07-09T03:27:59;12.63;;;9.50;;
33327;SDS011;19692;52.998;9.116;2022-07-09T03:30:25;14.10;;;9.60;;
33327;SDS011;19692;52.998;9.116;2022-07-09T03:32:51;16.97;;;9.53;;
33327;SDS011;19692;52.998;9.116;2022-07-09T03:35:16;17.90;;;9.23;;
33327;SDS011;19692;52.998;9.116;2022-07-09T03:37:42;16.47;;;9.73;;
33327;SDS011;19692;52.998;9.116;2022-07-09T03:40:08;14.57;;;9.00;;
33327;SDS011;19692;52.998;9.116;2022-07-09T03:42:34;15.53;;;9.10;;
33327;SDS011;19692;52.998;9.116;2022-07-09T03:45:00;14.23;;;9.13;;
33327;SDS011;19692;52.998;9.116;2022-07-09T03:47:26;12.03;;;8.77;;
33327;SDS011;19692;52.998;9.116;2022-07-09T03:49:52;12.63;;;8.93;;
33327;SDS011;19692;52.998;9.116;2022-07-09T03:52:17;14.13;;;9.53;;
33327;SDS011;19692;52.998;9.116;2022-07-09T03:54:43;13.70;;;8.33;;
33327;SDS011;19692;52.998;9.116;2022-07-09T03:57:09;16.40;;;8.77;;
33327;SDS011;19692;52.998;9.116;2022-07-09T03:59:35;12.50;;;8.20;;
33327;SDS011;19692;52.998;9.116;2022-07-09T04:02:01;15.77;;;8.23;;
33327;SDS011;19692;52.998;9.116;2022-07-09T04:04:28;13.93;;;8.37;;
33327;SDS011;19692;52.998;9.116;2022-07-09T04:06:53;15.70;;;8.57;;
33327;SDS011;19692;52.998;9.116;2022-07-09T04:09:21;16.03;;;8.77;;
33327;SDS011;19692;52.998;9.116;2022-07-09T04:11:47;14.67;;;8.97;;
33327;SDS011;19692;52.998;9.116;2022-07-09T04:14:13;18.20;;;8.80;;
33327;SDS011;19692;52.998;9.116;2022-07-09T04:16:44;17.73;;;9.13;;
33327;SDS011;19692;52.998;9.116;2022-07-09T04:19:11;12.63;;;9.10;;
33327;SDS011;19692;52.998;9.116;2022-07-09T04:21:37;16.03;;;9.10;;
33327;SDS011;19692;52.998;9.116;2022-07-09T04:24:03;16.13;;;8.77;;
33327;SDS011;19692;52.998;9.116;2022-07-09T04:26:29;14.57;;;9.03;;
33327;SDS011;19692;52.998;9.116;2022-07-09T04:28:55;15.43;;;9.50;;
33327;SDS011;19692;52.998;9.116;2022-07-09T04:31:21;17.97;;;9.83;;
33327;SDS011;19692;52.998;9.116;2022-07-09T04:33:47;15.70;;;9.70;;
33327;SDS011;19692;52.998;9.116;2022-07-09T04:36:13;12.10;;;9.10;;
33327;SDS011;19692;52.998;9.116;2022-07-09T04:38:39;18.53;;;9.23;;
33327;SDS011;19692;52.998;9.116;2022-07-09T04:41:04;15.97;;;10.20;;
33327;SDS011;19692;52.998;9.116;2022-07-09T04:43:30;16.00;;;9.87;;
33327;SDS011;19692;52.998;9.116;2022-07-09T04:45:57;22.57;;;10.67;;
33327;SDS011;19692;52.998;9.116;2022-07-09T04:48:24;16.63;;;9.67;;
33327;SDS011;19692;52.998;9.116;2022-07-09T04:50:49;14.30;;;9.80;;
33327;SDS011;19692;52.998;9.116;2022-07-09T04:53:15;13.67;;;9.80;;
33327;SDS011;19692;52.998;9.116;2022-07-09T04:55:41;15.70;;;10.40;;
33327;SDS011;19692;52.998;9.116;2022-07-09T04:58:07;17.03;;;10.67;;
33327;SDS011;19692;52.998;9.116;2022-07-09T05:00:34;14.90;;;10.13;;
33327;SDS011;19692;52.998;9.116;2022-07-09T05:02:59;16.90;;;10.30;;
33327;SDS011;19692;52.998;9.116;2022-07-09T05:05:26;16.97;;;9.10;;
33327;SDS011;19692;52.998;9.116;2022-07-09T05:07:52;14.83;;;10.47;;
33327;SDS011;19692;52.998;9.116;2022-07-09T05:10:18;12.37;;;9.80;;
33327;SDS011;19692;52.998;9.116;2022-07-09T05:12:44;15.60;;;10.87;;
33327;SDS011;19692;52.998;9.116;2022-07-09T05:15:11;16.30;;;9.67;;
33327;SDS011;19692;52.998;9.116;2022-07-09T05:17:38;17.30;;;11.07;;
33327;SDS011;19692;52.998;9.116;2022-07-09T05:20:05;16.77;;;10.27;;
33327;SDS011;19692;52.998;9.116;2022-07-09T05:22:34;14.60;;;10.17;;
33327;SDS011;19692;52.998;9.116;2022-07-09T05:25:01;14.50;;;9.30;;
33327;SDS011;19692;52.998;9.116;2022-07-09T05:27:28;16.87;;;11.20;;
33327;SDS011;19692;52.998;9.116;2022-07-09T05:29:54;20.67;;;12.53;;
33327;SDS011;19692;52.998;9.116;2022-07-09T05:32:20;14.27;;;10.20;;
33327;SDS011;19692;52.998;9.116;2022-07-09T05:34:46;14.03;;;9.77;;
33327;SDS011;19692;52.998;9.116;2022-07-09T05:37:12;14.03;;;10.13;;
33327;SDS011;19692;52.998;9.116;2022-07-09T05:39:38;13.10;;;10.27;;
33327;SDS011;19692;52.998;9.116;2022-07-09T05:42:04;14.70;;;9.90;;
33327;SDS011;19692;52.998;9.116;2022-07-09T05:44:30;16.47;;;10.40;;
33327;SDS011;19692;52.998;9.116;2022-07-09T05:46:56;15.63;;;10.73;;
33327;SDS011;19692;52.998;9.116;2022-07-09T05:49:22;18.83;;;10.20;;
33327;SDS011;19692;52.998;9.116;2022-07-09T05:51:48;14.17;;;9.73;;
33327;SDS011;19692;52.998;9.116;2022-07-09T05:54:14;14.60;;;10.60;;
33327;SDS011;19692;52.998;9.116;2022-07-09T05:56:40;16.53;;;10.87;;
33327;SDS011;19692;52.998;9.116;2022-07-09T05:59:06;14.70;;;9.90;;
33327;SDS011;19692;52.998;9.116;2022-07-09T06:01:33;14.83;;;10.70;;
33327;SDS011;19692;52.998;9.116;2022-07-09T06:04:03;17.90;;;11.77;;
33327;SDS011;19692;52.998;9.116;2022-07-09T06:06:30;19.63;;;11.00;;
33327;SDS011;19692;52.998;9.116;2022-07-09T06:08:55;15.03;;;10.97;;
33327;SDS011;19692;52.998;9.116;2022-07-09T06:11:21;13.57;;;11.80;;
33327;SDS011;19692;52.998;9.116;2022-07-09T06:13:47;16.13;;;11.10;;
33327;SDS011;19692;52.998;9.116;2022-07-09T06:16:13;13.53;;;10.57;;
33327;SDS011;19692;52.998;9.116;2022-07-09T06:18:39;16.27;;;10.97;;
33327;SDS011;19692;52.998;9.116;2022-07-09T06:21:05;18.17;;;11.80;;
33327;SDS011;19692;52.998;9.116;2022-07-09T06:23:30;17.87;;;10.83;;
33327;SDS011;19692;52.998;9.116;2022-07-09T06:25:56;12.83;;;10.03;;
33327;SDS011;19692;52.998;9.116;2022-07-09T06:28:22;15.03;;;10.87;;
33327;SDS011;19692;52.998;9.116;2022-07-09T06:30:48;12.90;;;10.57;;
33327;SDS011;19692;52.998;9.116;2022-07-09T06:33:13;15.50;;;10.77;;
33327;SDS011;19692;52.998;9.116;2022-07-09T06:35:39;15.53;;;10.43;;
33327;SDS011;19692;52.998;9.116;2022-07-09T06:38:05;16.10;;;10.00;;
33327;SDS011;19692;52.998;9.116;2022-07-09T06:40:31;17.23;;;10.60;;
33327;SDS011;19692;52.998;9.116;2022-07-09T06:42:57;16.90;;;10.07;;
33327;SDS011;19692;52.998;9.116;2022-07-09T06:45:23;13.23;;;9.80;;
33327;SDS011;19692;52.998;9.116;2022-07-09T06:47:49;15.80;;;10.43;;
33327;SDS011;19692;52.998;9.116;2022-07-09T06:50:14;17.67;;;12.73;;
33327;SDS011;19692;52.998;9.116;2022-07-09T06:52:40;14.13;;;10.03;;
33327;SDS011;19692;52.998;9.116;2022-07-09T06:55:06;12.33;;;9.30;;
33327;SDS011;19692;52.998;9.116;2022-07-09T06:57:32;12.57;;;9.23;;
33327;SDS011;19692;52.998;9.116;2022-07-09T06:59:58;17.83;;;11.13;;
33327;SDS011;19692;52.998;9.116;2022-07-09T07:02:24;14.77;;;7.90;;
33327;SDS011;19692;52.998;9.116;2022-07-09T07:04:50;10.77;;;7.97;;
33327;SDS011;19692;52.998;9.116;2022-07-09T07:07:16;9.83;;;8.00;;
33327;SDS011;19692;52.998;9.116;2022-07-09T07:09:41;10.40;;;7.50;;
33327;SDS011;19692;52.998;9.116;2022-07-09T07:12:07;10.07;;;7.87;;
33327;SDS011;19692;52.998;9.116;2022-07-09T07:14:33;13.73;;;7.93;;
33327;SDS011;19692;52.998;9.116;2022-07-09T07:16:59;12.77;;;7.23;;
33327;SDS011;19692;52.998;9.116;2022-07-09T07:19:24;11.03;;;6.77;;
33327;SDS011;19692;52.998;9.116;2022-07-09T07:21:50;11.40;;;7.10;;
33327;SDS011;19692;52.998;9.116;2022-07-09T07:24:16;15.50;;;6.77;;
33327;SDS011;19692;52.998;9.116;2022-07-09T07:26:42;20.20;;;15.73;;
33327;SDS011;19692;52.998;9.116;2022-07-09T07:29:07;8.47;;;6.37;;
33327;SDS011;19692;52.998;9.116;2022-07-09T07:31:33;10.80;;;6.10;;
33327;SDS011;19692;52.998;9.116;2022-07-09T07:33:59;8.93;;;5.97;;
33327;SDS011;19692;52.998;9.116;2022-07-09T07:36:25;8.23;;;6.60;;
33327;SDS011;19692;52.998;9.116;2022-07-09T07:38:52;8.07;;;6.40;;
33327;SDS011;19692;52.998;9.116;2022-07-09T07:41:17;8.50;;;5.80;;
33327;SDS011;19692;52.998;9.116;2022-07-09T07:43:44;7.57;;;6.50;;
33327;SDS011;19692;52.998;9.116;2022-07-09T07:46:10;10.93;;;7.17;;
33327;SDS011;19692;52.998;9.116;2022-07-09T07:48:36;9.13;;;6.97;;
33327;SDS011;19692;52.998;9.116;2022-07-09T07:51:02;8.40;;;6.20;;
33327;SDS011;19692;52.998;9.116;2022-07-09T07:53:32;9.10;;;5.87;;
33327;SDS011;19692;52.998;9.116;2022-07-09T07:56:07;7.43;;;5.07;;
33327;SDS011;19692;52.998;9.116;2022-07-09T07:58:33;7.13;;;4.83;;
33327;SDS011;19692;52.998;9.116;2022-07-09T08:01:00;6.83;;;5.13;;
33327;SDS011;19692;52.998;9.116;2022-07-09T08:03:26;8.07;;;4.77;;
33327;SDS011;19692;52.998;9.116;2022-07-09T08:05:52;8.00;;;4.40;;
33327;SDS011;19692;52.998;9.116;2022-07-09T08:08:17;6.57;;;4.50;;
33327;SDS011;19692;52.998;9.116;2022-07-09T08:10:43;7.53;;;4.63;;
33327;SDS011;19692;52.998;9.116;2022-07-09T08:13:13;8.93;;;5.43;;
33327;SDS011;19692;52.998;9.116;2022-07-09T08:15:42;7.83;;;4.90;;
33327;SDS011;19692;52.998;9.116;2022-07-09T08:18:09;7.23;;;5.00;;
33327;SDS011;19692;52.998;9.116;2022-07-09T08:20:37;7.57;;;4.60;;
33327;SDS011;19692;52.998;9.116;2022-07-09T08:23:06;6.50;;;4.70;;
33327;SDS011;19692;52.998;9.116;2022-07-09T08:25:33;6.90;;;4.37;;
33327;SDS011;19692;52.998;9.116;2022-07-09T08:27:58;4.30;;;3.90;;
33327;SDS011;19692;52.998;9.116;2022-07-09T08:30:26;5.07;;;4.10;;
33327;SDS011;19692;52.998;9.116;2022-07-09T08:32:52;5.60;;;4.43;;
33327;SDS011;19692;52.998;9.116;2022-07-09T08:35:17;4.73;;;4.10;;
33327;SDS011;19692;52.998;9.116;2022-07-09T08:37:43;8.33;;;4.00;;
33327;SDS011;19692;52.998;9.116;2022-07-09T08:40:09;7.63;;;3.80;;
33327;SDS011;19692;52.998;9.116;2022-07-09T08:42:35;6.53;;;4.20;;
33327;SDS011;19692;52.998;9.116;2022-07-09T08:45:01;5.83;;;3.47;;
33327;SDS011;19692;52.998;9.116;2022-07-09T08:47:27;6.70;;;3.90;;
33327;SDS011;19692;52.998;9.116;2022-07-09T08:49:56;4.70;;;3.37;;
33327;SDS011;19692;52.998;9.116;2022-07-09T08:52:24;5.37;;;3.40;;
33327;SDS011;19692;52.998;9.116;2022-07-09T08:54:54;4.90;;;3.80;;
33327;SDS011;19692;52.998;9.116;2022-07-09T08:57:20;4.97;;;3.53;;
33327;SDS011;19692;52.998;9.116;2022-07-09T08:59:46;5.70;;;3.90;;
33327;SDS011;19692;52.998;9.116;2022-07-09T09:02:11;4.50;;;3.83;;
33327;SDS011;19692;52.998;9.116;2022-07-09T09:04:38;4.97;;;3.23;;
33327;SDS011;19692;52.998;9.116;2022-07-09T09:07:15;4.70;;;2.83;;
33327;SDS011;19692;52.998;9.116;2022-07-09T09:09:42;5.20;;;3.33;;
33327;SDS011;19692;52.998;9.116;2022-07-09T09:12:09;5.27;;;3.07;;
33327;SDS011;19692;52.998;9.116;2022-07-09T09:14:35;3.73;;;2.90;;
33327;SDS011;19692;52.998;9.116;2022-07-09T09:17:08;4.10;;;2.97;;
33327;SDS011;19692;52.998;9.116;2022-07-09T09:19:37;4.80;;;2.90;;
33327;SDS011;19692;52.998;9.116;2022-07-09T09:22:04;7.17;;;3.30;;
33327;SDS011;19692;52.998;9.116;2022-07-09T09:24:31;2.83;;;2.60;;
33327;SDS011;19692;52.998;9.116;2022-07-09T09:26:59;5.90;;;2.87;;
33327;SDS011;19692;52.998;9.116;2022-07-09T09:29:26;2.40;;;2.20;;
33327;SDS011;19692;52.998;9.116;2022-07-09T09:31:52;3.30;;;3.00;;
33327;SDS011;19692;52.998;9.116;2022-07-09T09:34:19;4.20;;;2.13;;
33327;SDS011;19692;52.998;9.116;2022-07-09T09:36:46;3.97;;;2.80;;
33327;SDS011;19692;52.998;9.116;2022-07-09T09:39:19;3.10;;;2.80;;
33327;SDS011;19692;52.998;9.116;2022-07-09T09:41:50;3.87;;;2.77;;
33327;SDS011;19692;52.998;9.116;2022-07-09T09:44:20;2.90;;;2.40;;
33327;SDS011;19692;52.998;9.116;2022-07-09T09:46:52;3.67;;;2.43;;
33327;SDS011;19692;52.998;9.116;2022-07-09T09:49:19;4.20;;;2.60;;
33327;SDS011;19692;52.998;9.116;2022-07-09T09:51:46;4.97;;;2.80;;
33327;SDS011;19692;52.998;9.116;2022-07-09T09:54:15;2.87;;;2.57;;
33327;SDS011;19692;52.998;9.116;2022-07-09T09:56:43;3.60;;;2.40;;
33327;SDS011;19692;52.998;9.116;2022-07-09T09:59:10;3.63;;;2.30;;
33327;SDS011;19692;52.998;9.116;2022-07-09T10:01:37;4.97;;;2.10;;
33327;SDS011;19692;52.998;9.116;2022-07-09T10:04:11;3.03;;;2.03;;
33327;SDS011;19692;52.998;9.116;2022-07-09T10:06:40;3.37;;;2.20;;
33327;SDS011;19692;52.998;9.116;2022-07-09T10:09:06;3.33;;;2.00;;
33327;SDS011;19692;52.998;9.116;2022-07-09T10:14:06;2.40;;;2.00;;
33327;SDS011;19692;52.998;9.116;2022-07-09T10:16:37;3.20;;;2.00;;
33327;SDS011;19692;52.998;9.116;2022-07-09T10:19:04;4.13;;;2.00;;
33327;SDS011;19692;52.998;9.116;2022-07-09T10:21:36;3.97;;;2.10;;
33327;SDS011;19692;52.998;9.116;2022-07-09T10:24:06;3.40;;;2.00;;
33327;SDS011;19692;52.998;9.116;2022-07-09T10:26:45;1.90;;;1.70;;
33327;SDS011;19692;52.998;9.116;2022-07-09T10:29:25;2.30;;;2.10;;
33327;SDS011;19692;52.998;9.116;2022-07-09T10:31:55;5.33;;;4.10;;
33327;SDS011;19692;52.998;9.116;2022-07-09T10:37:02;2.20;;;2.00;;
33327;SDS011;19692;52.998;9.116;2022-07-09T10:39:30;3.50;;;2.53;;
33327;SDS011;19692;52.998;9.116;2022-07-09T10:44:36;2.40;;;1.87;;
33327;SDS011;19692;52.998;9.116;2022-07-09T10:47:06;2.80;;;2.20;;
33327;SDS011;19692;52.998;9.116;2022-07-09T10:49:35;3.77;;;2.10;;
33327;SDS011;19692;52.998;9.116;2022-07-09T10:52:02;2.67;;;2.23;;
33327;SDS011;19692;52.998;9.116;2022-07-09T10:54:30;4.03;;;2.10;;
33327;SDS011;19692;52.998;9.116;2022-07-09T10:56:56;4.50;;;2.23;;
33327;SDS011;19692;52.998;9.116;2022-07-09T10:59:23;6.47;;;2.77;;
33327;SDS011;19692;52.998;9.116;2022-07-09T11:01:49;10.83;;;3.20;;
33327;SDS011;19692;52.998;9.116;2022-07-09T11:04:29;4.23;;;2.80;;
33327;SDS011;19692;52.998;9.116;2022-07-09T11:06:57;3.37;;;2.87;;
33327;SDS011;19692;52.998;9.116;2022-07-09T11:09:26;4.77;;;2.80;;
33327;SDS011;19692;52.998;9.116;2022-07-09T11:11:56;4.60;;;2.70;;
33327;SDS011;19692;52.998;9.116;2022-07-09T11:14:22;4.30;;;2.50;;
33327;SDS011;19692;52.998;9.116;2022-07-09T11:16:54;6.27;;;3.20;;
33327;SDS011;19692;52.998;9.116;2022-07-09T11:19:21;3.90;;;2.77;;
33327;SDS011;19692;52.998;9.116;2022-07-09T11:21:47;3.43;;;2.80;;
33327;SDS011;19692;52.998;9.116;2022-07-09T11:24:15;5.90;;;3.10;;
33327;SDS011;19692;52.998;9.116;2022-07-09T11:26:44;5.37;;;3.40;;
33327;SDS011;19692;52.998;9.116;2022-07-09T11:29:12;4.83;;;3.20;;
33327;SDS011;19692;52.998;9.116;2022-07-09T11:31:46;4.77;;;3.00;;
33327;SDS011;19692;52.998;9.116;2022-07-09T11:34:17;6.90;;;3.17;;
33327;SDS011;19692;52.998;9.116;2022-07-09T11:36:44;5.27;;;3.50;;
33327;SDS011;19692;52.998;9.116;2022-07-09T11:39:25;4.00;;;3.00;;
33327;SDS011;19692;52.998;9.116;2022-07-09T11:41:56;4.60;;;3.20;;
33327;SDS011;19692;52.998;9.116;2022-07-09T11:44:27;4.17;;;3.37;;
33327;SDS011;19692;52.998;9.116;2022-07-09T11:49:40;4.10;;;2.90;;
33327;SDS011;19692;52.998;9.116;2022-07-09T11:52:18;3.97;;;2.80;;
33327;SDS011;19692;52.998;9.116;2022-07-09T11:57:24;3.73;;;2.50;;
33327;SDS011;19692;52.998;9.116;2022-07-09T11:59:51;2.63;;;2.33;;
33327;SDS011;19692;52.998;9.116;2022-07-09T12:02:24;4.53;;;2.63;;
33327;SDS011;19692;52.998;9.116;2022-07-09T12:04:53;2.60;;;2.40;;
33327;SDS011;19692;52.998;9.116;2022-07-09T12:07:19;3.77;;;2.10;;
33327;SDS011;19692;52.998;9.116;2022-07-09T12:09:45;3.53;;;2.40;;
33327;SDS011;19692;52.998;9.116;2022-07-09T12:12:11;2.30;;;2.10;;
33327;SDS011;19692;52.998;9.116;2022-07-09T12:14:36;4.67;;;2.37;;
33327;SDS011;19692;52.998;9.116;2022-07-09T12:17:02;4.67;;;2.40;;
33327;SDS011;19692;52.998;9.116;2022-07-09T12:19:29;4.30;;;2.30;;
33327;SDS011;19692;52.998;9.116;2022-07-09T12:21:54;6.67;;;2.40;;
33327;SDS011;19692;52.998;9.116;2022-07-09T12:24:21;5.17;;;2.50;;
33327;SDS011;19692;52.998;9.116;2022-07-09T12:26:46;4.73;;;2.40;;
33327;SDS011;19692;52.998;9.116;2022-07-09T12:29:12;3.10;;;2.67;;
33327;SDS011;19692;52.998;9.116;2022-07-09T12:31:38;4.27;;;2.90;;
33327;SDS011;19692;52.998;9.116;2022-07-09T12:34:04;4.97;;;2.63;;
33327;SDS011;19692;52.998;9.116;2022-07-09T12:36:30;3.97;;;2.60;;
33327;SDS011;19692;52.998;9.116;2022-07-09T12:38:57;5.77;;;3.00;;
33327;SDS011;19692;52.998;9.116;2022-07-09T12:41:22;4.33;;;2.30;;
33327;SDS011;19692;52.998;9.116;2022-07-09T12:43:48;5.97;;;3.30;;
33327;SDS011;19692;52.998;9.116;2022-07-09T12:46:14;3.40;;;2.40;;
33327;SDS011;19692;52.998;9.116;2022-07-09T12:48:39;3.90;;;2.43;;
33327;SDS011;19692;52.998;9.116;2022-07-09T12:51:05;5.27;;;2.90;;
33327;SDS011;19692;52.998;9.116;2022-07-09T12:53:31;5.83;;;3.37;;
33327;SDS011;19692;52.998;9.116;2022-07-09T12:55:57;4.53;;;2.83;;
33327;SDS011;19692;52.998;9.116;2022-07-09T12:58:22;6.60;;;2.70;;
33327;SDS011;19692;52.998;9.116;2022-07-09T13:00:48;5.93;;;2.77;;
33327;SDS011;19692;52.998;9.116;2022-07-09T13:03:14;3.60;;;2.67;;
33327;SDS011;19692;52.998;9.116;2022-07-09T13:05:40;8.03;;;2.80;;
33327;SDS011;19692;52.998;9.116;2022-07-09T13:08:05;5.80;;;2.77;;
33327;SDS011;19692;52.998;9.116;2022-07-09T13:10:31;5.50;;;2.53;;
33327;SDS011;19692;52.998;9.116;2022-07-09T13:12:57;6.57;;;2.63;;
33327;SDS011;19692;52.998;9.116;2022-07-09T13:15:22;6.37;;;2.33;;
33327;SDS011;19692;52.998;9.116;2022-07-09T13:17:49;4.10;;;2.50;;
33327;SDS011;19692;52.998;9.116;2022-07-09T13:20:14;4.37;;;2.33;;
33327;SDS011;19692;52.998;9.116;2022-07-09T13:22:41;7.43;;;2.60;;
33327;SDS011;19692;52.998;9.116;2022-07-09T13:25:07;5.53;;;2.37;;
33327;SDS011;19692;52.998;9.116;2022-07-09T13:27:33;4.13;;;2.33;;
33327;SDS011;19692;52.998;9.116;2022-07-09T13:29:59;5.47;;;2.97;;
33327;SDS011;19692;52.998;9.116;2022-07-09T13:32:24;10.70;;;3.10;;
33327;SDS011;19692;52.998;9.116;2022-07-09T13:34:52;5.67;;;2.37;;
33327;SDS011;19692;52.998;9.116;2022-07-09T13:37:18;5.90;;;2.40;;
33327;SDS011;19692;52.998;9.116;2022-07-09T13:39:44;3.70;;;1.97;;
33327;SDS011;19692;52.998;9.116;2022-07-09T13:42:10;6.10;;;2.23;;
33327;SDS011;19692;52.998;9.116;2022-07-09T13:44:36;3.67;;;2.20;;
33327;SDS011;19692;52.998;9.116;2022-07-09T13:47:02;6.53;;;2.60;;
33327;SDS011;19692;52.998;9.116;2022-07-09T13:49:28;5.37;;;2.40;;
33327;SDS011;19692;52.998;9.116;2022-07-09T13:51:53;5.33;;;2.10;;
33327;SDS011;19692;52.998;9.116;2022-07-09T13:54:20;3.87;;;2.00;;
33327;SDS011;19692;52.998;9.116;2022-07-09T13:56:46;5.27;;;2.23;;
33327;SDS011;19692;52.998;9.116;2022-07-09T13:59:11;4.03;;;2.00;;
33327;SDS011;19692;52.998;9.116;2022-07-09T14:01:37;4.73;;;2.30;;
33327;SDS011;19692;52.998;9.116;2022-07-09T14:04:03;3.07;;;2.20;;
33327;SDS011;19692;52.998;9.116;2022-07-09T14:06:29;5.40;;;2.10;;
33327;SDS011;19692;52.998;9.116;2022-07-09T14:08:55;3.30;;;2.07;;
33327;SDS011;19692;52.998;9.116;2022-07-09T14:11:21;4.43;;;2.13;;
33327;SDS011;19692;52.998;9.116;2022-07-09T14:13:46;5.60;;;1.97;;
33327;SDS011;19692;52.998;9.116;2022-07-09T14:16:13;3.83;;;1.77;;
33327;SDS011;19692;52.998;9.116;2022-07-09T14:18:40;3.93;;;2.37;;
33327;SDS011;19692;52.998;9.116;2022-07-09T14:21:05;4.20;;;1.80;;
33327;SDS011;19692;52.998;9.116;2022-07-09T14:23:31;5.30;;;1.97;;
33327;SDS011;19692;52.998;9.116;2022-07-09T14:25:57;5.17;;;2.00;;
33327;SDS011;19692;52.998;9.116;2022-07-09T14:28:23;3.67;;;1.63;;
33327;SDS011;19692;52.998;9.116;2022-07-09T14:30:48;2.90;;;2.10;;
33327;SDS011;19692;52.998;9.116;2022-07-09T14:33:14;5.03;;;2.20;;
33327;SDS011;19692;52.998;9.116;2022-07-09T14:35:40;6.87;;;2.10;;
33327;SDS011;19692;52.998;9.116;2022-07-09T14:38:06;6.23;;;2.13;;
33327;SDS011;19692;52.998;9.116;2022-07-09T14:40:31;6.27;;;2.13;;
33327;SDS011;19692;52.998;9.116;2022-07-09T14:42:57;4.30;;;2.37;;
33327;SDS011;19692;52.998;9.116;2022-07-09T14:45:23;5.37;;;2.10;;
33327;SDS011;19692;52.998;9.116;2022-07-09T14:47:51;2.17;;;1.93;;